Pagrindinis puslapis
METAR-TAF:

METAR-TAF

Oro uostai :

Narathivatas, Tailandas

platuma: 6-31-12N, ilguma: 101-44-36E, Aukštis: 5 m

Dabartinis oras

Ataskaita buvo paskelbta 1 valandą ir 2 minutes, ne 04:00 UTC
Vėjas 10 kt iš Rytų
Temperatūra 29°C
Drėgmė 70%
Slėgis 1012 hPa
Matomumas 10 km arba daugiau
Mažai debesys ne aukštis 2200 ft

METAR: VTSC 290400Z 10010KT 9999 FEW022 29/23 Q1012 NOSIG

Laikas: 12:02 (05:02 UTC)

Prognozė

Ataskaita buvo paskelbta 6 valandos ir 2 minutes, ne 23:00 UTC
Prognozė galioja nuo 29 metu 00 UTC su 29 metu 24 UTC
Vėjas 3 kt iš Pietų
Matomumas 10 km arba daugiau
Mažai debesys ne aukštis 2000 ft
Tapsmas
nuo 29 metu 03 UTC su 29 metu 05 UTC
Vėjas 10 kt iš Rytų
Tapsmas
nuo 29 metu 16 UTC su 29 metu 18 UTC
Vėjas 3 kt iš Pietų

TAF: VTSC 282300Z 2900/2924 18003KT 9999 FEW020 BECMG 2903/2905 09010KT BECMG 2916/2918 18003KT

Orai ataskaitas ir orų prognozės (METAR, TAF).

turimą stotys yra geltonos ir raudonos taškus žemėlapyje.

Perkelti pele per norėdami pamatyti stoties vardą.

Tada spustelėkite, norėdami matyti oro stebėjimo ir prognozės.

Norėdami pakeisti žemėlapį: spustelėkite ant žalios mygtukų su juodo kryžiaus žemyn,; žalią mygtuką su brūkšneliu, jei norite nutolinti; arba žalių rodyklių gretimoms žemėlapius.


METAR-TAF: